Terminal Aerodrome Forecast
Issued by NWS North Platte, NE

Home | Current Version | Previous Version | Text Only | Print | Product List | Glossary On
Versions: 1 2 3 4 5 6 7 8 9 10 11 12 13 14 15 16
000
FTUS43 KLBF 241100
TAFLBF
TAF
KLBF 241121Z 2412/2512 30015G21KT P6SM SKC
     FM241900 33022G32KT P6SM SCT060
     FM250000 32010KT P6SM OVC060=

USA.gov is the U.S. government's official web portal to all federal, state and local government web resources and services.